Search for the current weather situation

Metar

Metar
TNCC 201500Z AUTO 09007KT 060V120 9999 BKN019 30/24 Q1011
Decoded Metar

TAF

TAF
TNCC 201500Z AUTO 09007KT 060V120 9999 BKN019 30/24 Q1011
Decoded TAF
Top